Time,TemperatureF,DewpointF,PressureIn,WindDirection,WindDirectionDegrees,WindSpeedMPH,WindSpeedGustMPH,Humidity,HourlyPrecipIn,Conditions,Clouds,dailyrainin,SoftwareType,DateUTC
2013-01-20 00:05:00,60.1,44.3,29.65,SW,218,14.3,25.1,56,0.00,,---,0.00,VWS V14.01,2013-01-20 05:05:00,
2013-01-20 00:10:00,59.7,44.0,29.65,SSW,205,21.5,24.2,56,0.00,,---,0.00,VWS V14.01,2013-01-20 05:10:00,
2013-01-20 00:15:00,59.4,43.7,29.62,SW,214,17.0,21.5,56,0.00,,---,0.00,VWS V14.01,2013-01-20 05:15:00,
2013-01-20 00:25:00,59.4,43.7,29.62,SSW,208,18.8,22.8,56,0.00,,---,0.00,VWS V14.01,2013-01-20 05:25:00,
2013-01-20 00:30:00,59.4,43.7,29.62,SW,218,18.8,23.7,56,0.00,,---,0.00,VWS V14.01,2013-01-20 05:30:00,
2013-01-20 00:35:00,59.4,43.7,29.62,SSW,201,19.7,22.8,56,0.00,,---,0.00,VWS V14.01,2013-01-20 05:35:00,
2013-01-20 00:40:00,58.8,43.2,29.62,SW,214,16.6,22.4,56,0.00,,---,0.00,VWS V14.01,2013-01-20 05:40:00,
2013-01-20 00:45:00,58.3,42.7,29.62,SW,218,19.2,20.6,56,0.00,,---,0.00,VWS V14.01,2013-01-20 05:45:00,
2013-01-20 00:50:00,58.1,42.5,29.62,SW,214,16.6,19.2,56,0.00,,---,0.00,VWS V14.01,2013-01-20 05:50:00,
2013-01-20 01:00:00,58.3,42.7,29.62,SW,215,15.2,22.4,56,0.00,,---,0.00,VWS V14.01,2013-01-20 06:00:00,
2013-01-20 01:05:00,58.3,42.7,29.62,SSW,211,10.7,21.9,56,0.00,,---,0.00,VWS V14.01,2013-01-20 06:05:00,
2013-01-20 01:15:00,57.9,42.3,29.59,SSW,200,16.1,21.0,56,0.00,,---,0.00,VWS V14.01,2013-01-20 06:15:00,
2013-01-20 01:20:00,57.9,42.3,29.59,SSW,207,13.9,21.0,56,0.00,,---,0.00,VWS V14.01,2013-01-20 06:20:00,
2013-01-20 01:30:00,57.9,42.3,29.59,SSW,197,14.3,23.3,56,0.00,,---,0.00,VWS V14.01,2013-01-20 06:30:00,
2013-01-20 01:35:00,57.6,42.0,29.59,SW,214,19.7,21.9,56,0.00,,---,0.00,VWS V14.01,2013-01-20 06:35:00,
2013-01-20 01:40:00,57.4,41.8,29.59,SW,215,12.1,22.4,56,0.00,,---,0.00,VWS V14.01,2013-01-20 06:40:00,
2013-01-20 01:45:00,57.7,42.2,29.59,SW,216,18.3,24.6,56,0.00,,---,0.00,VWS V14.01,2013-01-20 06:45:00,
2013-01-20 01:55:00,57.6,42.0,29.59,SW,215,13.9,19.2,56,0.00,,---,0.00,VWS V14.01,2013-01-20 06:55:00,
2013-01-20 02:05:00,57.2,41.7,29.59,SW,214,17.9,22.4,56,0.00,,---,0.00,VWS V14.01,2013-01-20 07:05:00,
2013-01-20 02:10:00,57.6,42.0,29.59,SSW,209,15.7,20.1,56,0.00,,---,0.00,VWS V14.01,2013-01-20 07:10:00,
2013-01-20 02:20:00,57.2,41.7,29.56,SSW,205,15.7,20.1,56,0.00,,---,0.00,VWS V14.01,2013-01-20 07:20:00,
2013-01-20 02:30:00,57.6,42.0,29.56,SSW,205,15.2,22.4,56,0.00,,---,0.00,VWS V14.01,2013-01-20 07:30:00,
2013-01-20 02:35:00,57.7,42.2,29.56,SSW,209,17.4,20.1,56,0.00,,---,0.00,VWS V14.01,2013-01-20 07:35:00,
2013-01-20 02:45:00,57.7,42.2,29.56,SSW,212,15.7,19.7,56,0.00,,---,0.00,VWS V14.01,2013-01-20 07:45:00,
2013-01-20 02:55:00,57.4,41.8,29.56,SSW,207,15.7,21.5,56,0.00,,---,0.00,VWS V14.01,2013-01-20 07:55:00,
2013-01-20 03:00:00,57.7,42.2,29.53,SW,215,16.1,22.4,56,0.00,,---,0.00,VWS V14.01,2013-01-20 08:00:00,
2013-01-20 03:10:00,57.2,41.7,29.53,SSW,198,18.3,22.8,56,0.00,,---,0.00,VWS V14.01,2013-01-20 08:10:00,
2013-01-20 03:15:00,57.4,41.8,29.53,SSW,198,20.1,28.6,56,0.00,,---,0.00,VWS V14.01,2013-01-20 08:15:00,
2013-01-20 03:25:00,57.0,42.0,29.53,SSW,202,22.4,25.1,57,0.00,,---,0.00,VWS V14.01,2013-01-20 08:25:00,
2013-01-20 03:35:00,57.0,42.0,29.50,SSW,200,20.1,28.6,57,0.00,,---,0.00,VWS V14.01,2013-01-20 08:35:00,
2013-01-20 03:40:00,57.2,41.7,29.50,SSW,204,17.0,27.3,56,0.00,,---,0.00,VWS V14.01,2013-01-20 08:40:00,
2013-01-20 03:50:00,57.2,41.7,29.50,SSW,200,21.5,28.2,56,0.00,,---,0.00,VWS V14.01,2013-01-20 08:50:00,
2013-01-20 04:00:00,56.8,41.8,29.50,SSW,211,22.4,23.3,57,0.00,,---,0.00,VWS V14.01,2013-01-20 09:00:00,
2013-01-20 04:05:00,56.7,41.6,29.50,SSW,209,16.1,24.2,57,0.00,,---,0.00,VWS V14.01,2013-01-20 09:05:00,
2013-01-20 04:15:00,56.5,41.5,29.50,SSW,204,23.3,24.2,57,0.00,,---,0.00,VWS V14.01,2013-01-20 09:15:00,
2013-01-20 04:25:00,56.7,41.6,29.50,SSW,204,20.1,24.6,57,0.00,,---,0.00,VWS V14.01,2013-01-20 09:25:00,
2013-01-20 04:30:00,56.5,41.5,29.47,SSW,209,19.7,21.5,57,0.00,,---,0.00,VWS V14.01,2013-01-20 09:30:00,
2013-01-20 04:40:00,56.3,41.3,29.47,SSW,195,11.6,21.9,57,0.00,,---,0.00,VWS V14.01,2013-01-20 09:40:00,
2013-01-20 04:45:00,56.1,41.1,29.47,SW,219,17.4,21.5,57,0.00,,---,0.00,VWS V14.01,2013-01-20 09:45:00,
2013-01-20 04:55:00,56.3,41.3,29.47,SSW,201,18.3,22.4,57,0.00,,---,0.00,VWS V14.01,2013-01-20 09:55:00,
2013-01-20 05:05:00,56.5,41.5,29.47,SSW,212,11.6,19.2,57,0.00,,---,0.00,VWS V14.01,2013-01-20 10:05:00,
2013-01-20 05:10:00,56.8,41.8,29.47,SW,223,13.4,23.3,57,0.00,,---,0.00,VWS V14.01,2013-01-20 10:10:00,
2013-01-20 05:20:00,56.3,41.3,29.47,SSW,207,20.1,22.8,57,0.00,,---,0.00,VWS V14.01,2013-01-20 10:20:00,
2013-01-20 05:30:00,56.7,41.6,29.47,SSW,211,18.8,24.6,57,0.00,,---,0.00,VWS V14.01,2013-01-20 10:30:00,
2013-01-20 05:35:00,56.8,41.8,29.47,SSW,212,21.9,24.2,57,0.00,,---,0.00,VWS V14.01,2013-01-20 10:35:00,
2013-01-20 05:45:00,57.0,42.0,29.44,SSW,194,26.8,32.2,57,0.00,,---,0.00,VWS V14.01,2013-01-20 10:45:00,
2013-01-20 05:55:00,57.6,42.0,29.44,SSW,209,26.8,31.8,56,0.00,,---,0.00,VWS V14.01,2013-01-20 10:55:00,
2013-01-20 06:00:00,57.4,41.8,29.44,SW,218,23.7,31.8,56,0.00,,---,0.00,VWS V14.01,2013-01-20 11:00:00,
2013-01-20 06:10:00,57.4,41.8,29.44,SSW,212,23.3,30.0,56,0.00,,---,0.00,VWS V14.01,2013-01-20 11:10:00,
2013-01-20 06:15:00,57.6,42.0,29.44,SW,215,19.7,29.1,56,0.00,,---,0.00,VWS V14.01,2013-01-20 11:15:00,
2013-01-20 06:25:00,57.9,42.3,29.44,SW,228,17.4,36.7,56,0.00,,---,0.00,VWS V14.01,2013-01-20 11:25:00,
2013-01-20 06:35:00,58.1,42.5,29.44,SW,223,26.4,28.2,56,0.00,,---,0.00,VWS V14.01,2013-01-20 11:35:00,
2013-01-20 06:40:00,58.1,42.5,29.44,SSW,198,22.4,35.3,56,0.00,,---,0.00,VWS V14.01,2013-01-20 11:40:00,
2013-01-20 06:50:00,58.3,42.7,29.44,SSW,205,14.3,25.5,56,0.00,,---,0.00,VWS V14.01,2013-01-20 11:50:00,
2013-01-20 07:00:00,54.7,46.6,29.50,NW,316,17.4,27.3,74,0.00,,---,0.00,VWS V14.01,2013-01-20 12:00:00,
2013-01-20 07:05:00,53.4,47.4,29.50,West,263,13.9,22.4,80,0.00,,---,0.00,VWS V14.01,2013-01-20 12:05:00,
2013-01-20 07:10:00,52.7,47.4,29.50,West,280,11.2,21.5,82,0.00,,---,0.00,VWS V14.01,2013-01-20 12:10:00,
2013-01-20 07:15:00,52.2,46.5,29.50,SW,216,5.8,28.6,81,0.00,,---,0.00,VWS V14.01,2013-01-20 12:15:00,
2013-01-20 07:25:00,51.6,45.7,29.50,West,263,18.3,19.7,80,0.00,,---,0.00,VWS V14.01,2013-01-20 12:25:00,
2013-01-20 07:30:00,51.6,45.7,29.50,WSW,257,2.2,24.6,80,0.00,,---,0.00,VWS V14.01,2013-01-20 12:30:00,
2013-01-20 07:35:00,52.0,45.3,29.50,WNW,284,3.6,21.0,78,0.00,,---,0.00,VWS V14.01,2013-01-20 12:35:00,
2013-01-20 07:40:00,52.3,44.0,29.50,West,263,20.6,30.9,73,0.00,,---,0.00,VWS V14.01,2013-01-20 12:40:00,
2013-01-20 07:45:00,52.5,43.4,29.50,WSW,238,8.1,20.6,71,0.00,,---,0.00,VWS V14.01,2013-01-20 12:45:00,
2013-01-20 07:55:00,52.7,42.8,29.50,WNW,297,9.8,16.6,69,0.00,,---,0.00,VWS V14.01,2013-01-20 12:55:00,
2013-01-20 08:00:00,53.1,42.8,29.53,West,259,10.7,22.4,68,0.00,,---,0.00,VWS V14.01,2013-01-20 13:00:00,
2013-01-20 08:05:00,53.1,42.8,29.53,SW,233,6.7,14.8,68,0.00,,---,0.00,VWS V14.01,2013-01-20 13:05:00,
2013-01-20 08:10:00,53.2,42.6,29.53,West,269,11.6,22.8,67,0.00,,---,0.00,VWS V14.01,2013-01-20 13:10:00,
2013-01-20 08:20:00,53.4,40.7,29.53,NNW,346,9.8,17.9,62,0.00,,---,0.00,VWS V14.01,2013-01-20 13:20:00,
2013-01-20 08:30:00,53.1,40.4,29.56,WSW,250,17.0,30.4,62,0.00,,---,0.00,VWS V14.01,2013-01-20 13:30:00,
2013-01-20 08:35:00,52.0,40.6,29.56,WNW,290,30.9,36.2,65,0.00,,---,0.00,VWS V14.01,2013-01-20 13:35:00,
2013-01-20 08:45:00,50.7,38.6,29.56,NW,307,14.8,30.9,63,0.00,,---,0.00,VWS V14.01,2013-01-20 13:45:00,
2013-01-20 09:00:00,50.5,36.3,29.59,WNW,300,5.8,23.7,58,0.00,,---,0.00,VWS V14.01,2013-01-20 14:00:00,
2013-01-20 09:05:00,50.5,36.3,29.59,WSW,257,16.1,23.7,58,0.00,,---,0.00,VWS V14.01,2013-01-20 14:05:00,
2013-01-20 09:10:00,50.4,36.2,29.59,WNW,285,8.5,26.4,58,0.00,,---,0.00,VWS V14.01,2013-01-20 14:10:00,
2013-01-20 09:20:00,50.5,36.3,29.62,WNW,295,5.8,28.6,58,0.00,,---,0.00,VWS V14.01,2013-01-20 14:20:00,
2013-01-20 09:25:00,49.8,35.7,29.62,NW,312,12.5,38.5,58,0.00,,---,0.00,VWS V14.01,2013-01-20 14:25:00,
2013-01-20 09:35:00,48.6,34.5,29.65,SW,223,12.5,24.6,58,0.00,,---,0.00,VWS V14.01,2013-01-20 14:35:00,
2013-01-20 09:45:00,49.6,35.5,29.65,NW,312,3.1,20.6,58,0.00,,---,0.00,VWS V14.01,2013-01-20 14:45:00,
2013-01-20 09:50:00,49.6,35.5,29.65,West,259,13.0,31.8,58,0.00,,---,0.00,VWS V14.01,2013-01-20 14:50:00,
2013-01-20 09:55:00,50.2,36.0,29.65,West,274,15.2,25.9,58,0.00,,---,0.00,VWS V14.01,2013-01-20 14:55:00,
2013-01-20 10:00:00,50.0,35.8,29.68,West,267,30.4,30.4,58,0.00,,---,0.00,VWS V14.01,2013-01-20 15:00:00,
2013-01-20 10:05:00,46.4,32.9,29.68,WNW,285,15.7,35.3,59,0.00,,---,0.00,VWS V14.01,2013-01-20 15:05:00,
2013-01-20 10:15:00,45.9,32.4,29.68,WNW,284,21.0,24.6,59,0.00,,---,0.00,VWS V14.01,2013-01-20 15:15:00,
2013-01-20 10:25:00,46.2,32.7,29.68,NW,321,11.2,30.9,59,0.00,,---,0.00,VWS V14.01,2013-01-20 15:25:00,
2013-01-20 10:30:00,46.6,33.0,29.68,SSE,161,7.2,32.7,59,0.00,,---,0.00,VWS V14.01,2013-01-20 15:30:00,
2013-01-20 10:40:00,47.3,33.7,29.68,NNW,338,14.8,20.1,59,0.00,,---,0.00,VWS V14.01,2013-01-20 15:40:00,
2013-01-20 10:50:00,46.4,32.9,29.68,WSW,243,6.7,30.9,59,0.00,,---,0.00,VWS V14.01,2013-01-20 15:50:00,
2013-01-20 11:00:00,45.5,32.0,29.68,West,270,15.2,22.8,59,0.00,,---,0.00,VWS V14.01,2013-01-20 16:00:00,
2013-01-20 11:05:00,45.7,32.2,29.68,NW,323,14.8,23.3,59,0.00,,---,0.00,VWS V14.01,2013-01-20 16:05:00,
2013-01-20 11:10:00,44.1,30.7,29.68,NW,304,8.9,25.1,59,0.00,,---,0.00,VWS V14.01,2013-01-20 16:10:00,
2013-01-20 11:15:00,43.3,30.0,29.71,North,350,12.5,25.5,59,0.00,,---,0.00,VWS V14.01,2013-01-20 16:15:00,
2013-01-20 11:25:00,42.6,31.7,29.71,NW,309,18.3,28.2,65,0.00,,---,0.00,VWS V14.01,2013-01-20 16:25:00,
2013-01-20 11:30:00,42.3,31.4,29.71,NW,318,4.9,29.1,65,0.00,,---,0.00,VWS V14.01,2013-01-20 16:30:00,
2013-01-20 11:40:00,41.7,30.8,29.71,WNW,287,12.5,23.3,65,0.00,,---,0.00,VWS V14.01,2013-01-20 16:40:00,
2013-01-20 11:50:00,41.4,29.3,29.71,NNW,336,15.7,21.9,62,0.00,,---,0.00,VWS V14.01,2013-01-20 16:50:00,
2013-01-20 11:55:00,41.4,29.3,29.71,West,267,11.6,22.4,62,0.00,,---,0.00,VWS V14.01,2013-01-20 16:55:00,
2013-01-20 12:00:00,41.4,29.3,29.71,WNW,292,10.3,17.4,62,0.00,,---,0.00,VWS V14.01,2013-01-20 17:00:00,
2013-01-20 12:05:00,43.3,30.0,29.71,NW,326,8.5,18.8,59,0.00,,---,0.00,VWS V14.01,2013-01-20 17:05:00,
2013-01-20 12:15:00,43.0,29.6,29.71,NE,50,8.9,20.1,59,0.00,,---,0.00,VWS V14.01,2013-01-20 17:15:00,
2013-01-20 12:20:00,43.3,30.0,29.71,WNW,284,6.7,26.8,59,0.00,,---,0.00,VWS V14.01,2013-01-20 17:20:00,
2013-01-20 12:30:00,41.5,29.5,29.71,NW,318,25.5,25.5,62,0.00,,---,0.00,VWS V14.01,2013-01-20 17:30:00,
2013-01-20 12:40:00,40.5,28.9,29.71,West,278,21.0,22.8,63,0.00,,---,0.00,VWS V14.01,2013-01-20 17:40:00,
2013-01-20 12:45:00,40.3,28.7,29.74,NE,47,1.8,26.4,63,0.00,,---,0.00,VWS V14.01,2013-01-20 17:45:00,
2013-01-20 12:50:00,40.1,27.4,29.74,West,266,8.9,19.7,60,0.00,,---,0.00,VWS V14.01,2013-01-20 17:50:00,
2013-01-20 12:55:00,40.1,27.4,29.74,NW,305,9.4,24.2,60,0.00,,---,0.00,VWS V14.01,2013-01-20 17:55:00,
2013-01-20 13:05:00,40.5,27.7,29.74,East,95,7.6,17.4,60,0.00,,---,0.00,VWS V14.01,2013-01-20 18:05:00,
2013-01-20 13:15:00,40.3,27.5,29.77,NW,312,7.6,29.1,60,0.00,,---,0.00,VWS V14.01,2013-01-20 18:15:00,
2013-01-20 13:25:00,40.1,27.4,29.77,West,271,9.4,30.4,60,0.00,,---,0.00,VWS V14.01,2013-01-20 18:25:00,
2013-01-20 13:30:00,40.5,27.7,29.77,West,271,13.0,26.4,60,0.00,,---,0.00,VWS V14.01,2013-01-20 18:30:00,
2013-01-20 13:35:00,40.6,27.9,29.77,WSW,256,4.9,31.3,60,0.00,,---,0.00,VWS V14.01,2013-01-20 18:35:00,
2013-01-20 13:40:00,39.9,27.2,29.77,NNW,332,12.1,22.4,60,0.00,,---,0.00,VWS V14.01,2013-01-20 18:40:00,
2013-01-20 13:50:00,39.0,26.7,29.77,NW,319,11.2,31.3,61,0.00,,---,0.00,VWS V14.01,2013-01-20 18:50:00,
2013-01-20 13:55:00,39.0,26.7,29.77,WNW,298,7.6,21.5,61,0.00,,---,0.00,VWS V14.01,2013-01-20 18:55:00,
2013-01-20 14:05:00,38.1,25.9,29.80,West,277,16.1,27.3,61,0.00,,---,0.00,VWS V14.01,2013-01-20 19:05:00,
2013-01-20 14:15:00,38.1,25.9,29.80,NW,312,7.6,27.3,61,0.00,,---,0.00,VWS V14.01,2013-01-20 19:15:00,
2013-01-20 14:25:00,37.9,25.7,29.80,West,263,13.0,23.3,61,0.00,,---,0.00,VWS V14.01,2013-01-20 19:25:00,
2013-01-20 14:30:00,38.8,26.6,29.80,WNW,284,12.5,23.7,61,0.00,,---,0.00,VWS V14.01,2013-01-20 19:30:00,
2013-01-20 14:40:00,39.4,26.7,29.80,WSW,238,10.7,16.6,60,0.00,,---,0.00,VWS V14.01,2013-01-20 19:40:00,
2013-01-20 14:50:00,38.3,26.0,29.83,WNW,290,17.0,25.9,61,0.00,,---,0.00,VWS V14.01,2013-01-20 19:50:00,
2013-01-20 15:00:00,38.8,26.6,29.83,West,266,10.3,19.7,61,0.00,,---,0.00,VWS V14.01,2013-01-20 20:00:00,
2013-01-20 15:05:00,38.7,26.4,29.83,SW,222,15.2,19.2,61,0.00,,---,0.00,VWS V14.01,2013-01-20 20:05:00,
2013-01-20 15:10:00,38.8,26.6,29.83,NNW,346,0.9,15.2,61,0.00,,---,0.00,VWS V14.01,2013-01-20 20:10:00,
2013-01-20 15:15:00,37.9,25.7,29.83,SW,218,9.8,15.7,61,0.00,,---,0.00,VWS V14.01,2013-01-20 20:15:00,
2013-01-20 15:25:00,37.6,25.4,29.83,NW,323,17.9,17.9,61,0.00,,---,0.00,VWS V14.01,2013-01-20 20:25:00,
2013-01-20 15:35:00,36.9,24.7,29.85,WNW,290,10.7,31.3,61,0.00,,---,0.00,VWS V14.01,2013-01-20 20:35:00,
2013-01-20 15:40:00,36.9,24.7,29.85,West,281,13.0,20.6,61,0.00,,---,0.00,VWS V14.01,2013-01-20 20:40:00,
2013-01-20 15:50:00,37.0,24.9,29.85,North,1,5.8,17.0,61,0.00,,---,0.00,VWS V14.01,2013-01-20 20:50:00,
2013-01-20 16:00:00,36.3,24.2,29.85,NW,309,2.7,16.6,61,0.00,,---,0.00,VWS V14.01,2013-01-20 21:00:00,
2013-01-20 16:10:00,36.1,24.0,29.85,SW,219,11.2,16.1,61,0.00,,---,0.00,VWS V14.01,2013-01-20 21:10:00,
2013-01-20 16:15:00,35.8,23.7,29.85,WNW,298,15.7,22.4,61,0.00,,---,0.00,VWS V14.01,2013-01-20 21:15:00,
2013-01-20 16:25:00,35.2,23.1,29.85,NW,311,13.4,17.9,61,0.00,,---,0.00,VWS V14.01,2013-01-20 21:25:00,
2013-01-20 16:35:00,35.2,23.1,29.88,North,359,4.0,20.1,61,0.00,,---,0.00,VWS V14.01,2013-01-20 21:35:00,
2013-01-20 16:45:00,35.1,23.0,29.88,NW,307,16.1,21.5,61,0.00,,---,0.00,VWS V14.01,2013-01-20 21:45:00,
2013-01-20 16:50:00,35.1,23.0,29.88,WNW,288,5.8,16.1,61,0.00,,---,0.00,VWS V14.01,2013-01-20 21:50:00,
2013-01-20 16:55:00,35.1,23.0,29.88,WSW,257,8.1,16.1,61,0.00,,---,0.00,VWS V14.01,2013-01-20 21:55:00,
2013-01-20 17:00:00,34.7,22.6,29.88,NW,325,16.1,24.2,61,0.00,,---,0.00,VWS V14.01,2013-01-20 22:00:00,
2013-01-20 17:10:00,34.5,22.5,29.88,WNW,294,7.2,16.6,61,0.00,,---,0.00,VWS V14.01,2013-01-20 22:10:00,
2013-01-20 17:20:00,34.2,22.1,29.88,West,273,5.8,16.1,61,0.00,,---,0.00,VWS V14.01,2013-01-20 22:20:00,
2013-01-20 17:30:00,34.2,22.1,29.88,West,280,8.1,17.0,61,0.00,,---,0.00,VWS V14.01,2013-01-20 22:30:00,
2013-01-20 17:35:00,34.0,22.0,29.88,WNW,288,14.3,20.6,61,0.00,,---,0.00,VWS V14.01,2013-01-20 22:35:00,
2013-01-20 17:40:00,34.0,22.0,29.88,NW,305,8.1,24.6,61,0.00,,---,0.00,VWS V14.01,2013-01-20 22:40:00,
2013-01-20 17:45:00,34.0,22.0,29.91,West,269,9.8,13.4,61,0.00,,---,0.00,VWS V14.01,2013-01-20 22:45:00,
2013-01-20 17:55:00,34.0,22.0,29.91,WNW,302,8.5,21.5,61,0.00,,---,0.00,VWS V14.01,2013-01-20 22:55:00,
2013-01-20 18:05:00,34.0,22.0,29.91,NW,311,13.0,15.2,61,0.00,,---,0.00,VWS V14.01,2013-01-20 23:05:00,
2013-01-20 18:15:00,33.8,21.8,29.91,WNW,300,4.9,15.2,61,0.00,,---,0.00,VWS V14.01,2013-01-20 23:15:00,
2013-01-20 18:20:00,33.6,22.0,29.91,SW,221,0.0,18.8,62,0.00,,---,0.00,VWS V14.01,2013-01-20 23:20:00,
2013-01-20 18:30:00,33.6,22.0,29.91,West,259,4.0,13.9,62,0.00,,---,0.00,VWS V14.01,2013-01-20 23:30:00,
2013-01-20 18:40:00,33.4,21.8,29.91,West,273,12.5,24.6,62,0.00,,---,0.00,VWS V14.01,2013-01-20 23:40:00,
2013-01-20 18:50:00,33.1,21.5,29.91,WSW,254,8.9,9.4,62,0.00,,---,0.00,VWS V14.01,2013-01-20 23:50:00,
2013-01-20 19:00:00,31.8,24.5,29.94,NNE,19,4.5,14.3,74,0.00,,---,0.00,VWS V14.01,2013-01-21 00:00:00,
2013-01-20 19:10:00,31.6,25.0,29.94,NW,311,0.0,12.5,76,0.00,,---,0.00,VWS V14.01,2013-01-21 00:10:00,
2013-01-20 19:15:00,31.6,25.3,29.94,West,267,4.5,5.8,77,0.00,,---,0.00,VWS V14.01,2013-01-21 00:15:00,
2013-01-20 19:25:00,31.5,24.5,29.94,NW,307,2.2,11.2,75,0.00,,---,0.00,VWS V14.01,2013-01-21 00:25:00,
2013-01-20 19:35:00,32.0,23.0,29.94,NNW,328,17.9,22.4,69,0.00,,---,0.00,VWS V14.01,2013-01-21 00:35:00,
2013-01-20 19:40:00,32.0,21.2,29.94,West,278,13.0,20.1,64,0.00,,---,0.00,VWS V14.01,2013-01-21 00:40:00,
2013-01-20 19:45:00,32.0,20.5,29.94,NW,312,7.6,24.2,62,0.00,,---,0.00,VWS V14.01,2013-01-21 00:45:00,
2013-01-20 19:50:00,32.0,20.5,29.94,NW,315,13.9,18.3,62,0.00,,---,0.00,VWS V14.01,2013-01-21 00:50:00,
2013-01-20 19:55:00,32.0,20.5,29.94,WNW,292,8.9,24.6,62,0.00,,---,0.00,VWS V14.01,2013-01-21 00:55:00,
2013-01-20 20:00:00,32.0,20.5,29.94,WNW,302,16.6,22.8,62,0.00,,---,0.00,VWS V14.01,2013-01-21 01:00:00,
2013-01-20 20:10:00,31.6,20.1,29.94,NNW,343,12.5,24.2,62,0.00,,---,0.00,VWS V14.01,2013-01-21 01:10:00,
2013-01-20 20:20:00,31.3,20.9,29.94,North,357,8.5,18.3,65,0.00,,---,0.00,VWS V14.01,2013-01-21 01:20:00,
2013-01-20 20:25:00,31.3,19.8,29.94,NW,311,8.1,15.7,62,0.00,,---,0.00,VWS V14.01,2013-01-21 01:25:00,
2013-01-20 20:30:00,31.3,19.8,29.97,NW,311,4.9,22.4,62,0.00,,---,0.00,VWS V14.01,2013-01-21 01:30:00,
2013-01-20 20:40:00,30.9,19.5,29.97,West,267,7.6,14.3,62,0.00,,---,0.00,VWS V14.01,2013-01-21 01:40:00,
2013-01-20 20:50:00,30.9,19.5,29.94,WNW,294,13.4,21.0,62,0.00,,---,0.00,VWS V14.01,2013-01-21 01:50:00,
2013-01-20 20:55:00,30.9,19.5,29.94,NW,304,8.9,16.6,62,0.00,,---,0.00,VWS V14.01,2013-01-21 01:55:00,
2013-01-20 21:05:00,30.9,19.5,29.97,NW,318,10.3,20.6,62,0.00,,---,0.00,VWS V14.01,2013-01-21 02:05:00,
2013-01-20 21:10:00,30.9,19.5,29.97,NW,319,6.7,13.9,62,0.00,,---,0.00,VWS V14.01,2013-01-21 02:10:00,
2013-01-20 21:15:00,30.9,19.5,29.97,West,264,3.1,10.3,62,0.00,,---,0.00,VWS V14.01,2013-01-21 02:15:00,
2013-01-20 21:25:00,30.6,19.1,29.97,NW,304,8.9,25.1,62,0.00,,---,0.00,VWS V14.01,2013-01-21 02:25:00,
2013-01-20 21:35:00,30.4,18.9,29.97,West,273,12.1,20.1,62,0.00,,---,0.00,VWS V14.01,2013-01-21 02:35:00,
2013-01-20 21:45:00,30.0,19.0,29.97,NW,311,18.3,21.5,63,0.00,,---,0.00,VWS V14.01,2013-01-21 02:45:00,
2013-01-20 21:50:00,29.8,18.8,29.97,NW,304,7.2,23.3,63,0.00,,---,0.00,VWS V14.01,2013-01-21 02:50:00,
2013-01-20 21:55:00,29.7,18.6,29.97,NW,307,8.9,12.1,63,0.00,,---,0.00,VWS V14.01,2013-01-21 02:55:00,
2013-01-20 22:00:00,29.5,18.5,30.00,SW,232,5.8,16.6,63,0.00,,---,0.00,VWS V14.01,2013-01-21 03:00:00,
2013-01-20 22:10:00,29.5,18.5,30.00,WNW,300,12.1,16.6,63,0.00,,---,0.00,VWS V14.01,2013-01-21 03:10:00,
2013-01-20 22:20:00,29.3,18.3,30.00,WSW,247,6.7,19.7,63,0.00,,---,0.00,VWS V14.01,2013-01-21 03:20:00,
2013-01-20 22:30:00,21.0,10.4,29.97,NW,325,8.5,28.6,63,0.00,,---,0.00,VWS V14.01,2013-01-21 03:30:00,
2013-01-20 22:35:00,20.8,10.2,29.97,NW,323,5.8,13.0,63,0.00,,---,0.00,VWS V14.01,2013-01-21 03:35:00,
2013-01-20 22:45:00,20.5,9.9,30.00,NW,326,8.5,15.2,63,0.00,,---,0.00,VWS V14.01,2013-01-21 03:45:00,
2013-01-20 22:50:00,20.3,9.7,30.00,NW,314,10.7,10.7,63,0.00,,---,0.00,VWS V14.01,2013-01-21 03:50:00,
2013-01-20 22:55:00,20.3,9.7,30.00,West,277,7.6,17.9,63,0.00,,---,0.00,VWS V14.01,2013-01-21 03:55:00,
2013-01-20 23:00:00,20.1,9.6,30.00,WNW,291,8.5,9.8,63,0.00,,---,0.00,VWS V14.01,2013-01-21 04:00:00,